createdAt,value
2018-01-08T00:00:29.196Z,19.2
2018-01-08T00:01:30.809Z,19.1
2018-01-08T00:02:32.145Z,19.1
2018-01-08T00:03:33.526Z,19.1
2018-01-08T00:04:34.580Z,19.1
2018-01-08T00:05:35.891Z,19.1
2018-01-08T00:06:37.491Z,19.1
2018-01-08T00:07:39.109Z,19.1
2018-01-08T00:08:40.770Z,19.1
2018-01-08T00:09:42.389Z,19.1
2018-01-08T00:10:43.984Z,19.2
2018-01-08T00:11:45.603Z,19.1
2018-01-08T00:12:47.200Z,19.1
2018-01-08T00:13:48.799Z,19.1
2018-01-08T00:14:50.120Z,19.2
2018-01-08T00:15:51.461Z,19.1
2018-01-08T00:16:53.093Z,19.2
2018-01-08T00:17:55.004Z,19.1
2018-01-08T00:18:56.901Z,19.1
2018-01-08T00:19:58.793Z,19.1
2018-01-08T00:21:00.134Z,19.1
2018-01-08T00:22:01.497Z,19.1
2018-01-08T00:23:03.119Z,19.2
2018-01-08T00:24:05.010Z,19.1
2018-01-08T00:25:06.629Z,19.1
2018-01-08T00:26:07.970Z,19.1
2018-01-08T00:27:09.588Z,19.1
2018-01-08T00:28:11.485Z,19.1
2018-01-08T00:29:13.116Z,19.1
2018-01-08T00:30:14.433Z,19.1
2018-01-08T00:31:16.329Z,19.1
2018-01-08T00:32:17.946Z,19.1
2018-01-08T00:33:19.266Z,19.1
2018-01-08T00:34:20.860Z,19.1
2018-01-08T00:35:22.756Z,19.1
2018-01-08T00:36:24.379Z,19.1
2018-01-08T00:37:26.027Z,19.1
2018-01-08T00:38:27.341Z,19.1
2018-01-08T00:39:29.241Z,19.1
2018-01-08T00:40:30.837Z,19.1
2018-01-08T00:41:31.876Z,19.1
2018-01-08T00:42:33.220Z,19.1
2018-01-08T00:43:34.834Z,19.1
2018-01-08T00:44:35.879Z,19.1
2018-01-08T00:45:37.768Z,19.1
2018-01-08T00:46:39.366Z,19.1
2018-01-08T00:47:40.982Z,19
2018-01-08T00:48:42.030Z,19.1
2018-01-08T00:49:43.644Z,19.1
2018-01-08T00:50:44.984Z,19.1
2018-01-08T00:51:46.604Z,19.1
2018-01-08T00:52:48.502Z,19.1
2018-01-08T00:53:50.396Z,19.1
2018-01-08T00:54:51.737Z,19.1
2018-01-08T00:55:53.363Z,19.1
2018-01-08T00:56:54.978Z,19.1
2018-01-08T00:57:56.579Z,19.1
2018-01-08T00:58:57.915Z,19.1
2018-01-08T00:59:59.255Z,19.1
2018-01-08T01:03:01.632Z,19.1
2018-01-08T01:04:03.260Z,19.1
2018-01-08T01:05:05.155Z,19.1
2018-01-08T01:06:07.050Z,19.1
2018-01-08T01:07:08.669Z,19.2
2018-01-08T01:08:10.580Z,19.1
2018-01-08T01:09:11.628Z,19.1
2018-01-08T01:10:13.225Z,19.1
2018-01-08T01:11:14.542Z,19.1
2018-01-08T01:12:15.883Z,19.1
2018-01-08T01:13:17.780Z,19.2
2018-01-08T01:14:19.112Z,19.1
2018-01-08T01:15:20.445Z,19.1
2018-01-08T01:16:22.066Z,19.1
2018-01-08T01:17:23.963Z,19.1
2018-01-08T01:18:25.281Z,19.1
2018-01-08T01:19:26.601Z,19.2
2018-01-08T01:20:28.498Z,19.1
2018-01-08T01:21:30.097Z,19.1
2018-01-08T01:22:31.436Z,19.2
2018-01-08T01:23:32.479Z,19.2
2018-01-08T01:24:33.820Z,19.2
2018-01-08T01:25:35.741Z,19.1
2018-01-08T01:26:37.636Z,19.2
2018-01-08T01:27:38.957Z,19.1
2018-01-08T01:28:40.852Z,19.1
2018-01-08T01:29:42.750Z,19.1
2018-01-08T01:30:44.069Z,19.1
2018-01-08T01:31:45.685Z,19.1
2018-01-08T01:32:47.589Z,19.1
2018-01-08T01:33:49.209Z,19.2
2018-01-08T01:34:50.250Z,19.1
2018-01-08T01:35:51.569Z,19.1
2018-01-08T01:36:52.630Z,19.2
2018-01-08T01:37:56.991Z,19.1
2018-01-08T01:38:58.884Z,19.2
2018-01-08T01:40:00.502Z,19.1
2018-01-08T01:41:02.122Z,19.1
2018-01-08T01:42:03.739Z,19.1
2018-01-08T01:43:05.056Z,19.2
2018-01-08T01:44:06.950Z,19.1
2018-01-08T01:45:08.847Z,19.1
2018-01-08T01:46:10.465Z,19.1
2018-01-08T01:47:12.085Z,19.2
2018-01-08T01:48:13.980Z,19.1
2018-01-08T01:49:15.874Z,19.2
2018-01-08T01:50:17.528Z,19.2
2018-01-08T01:51:19.147Z,19.1
2018-01-08T01:52:21.042Z,19.1
2018-01-08T01:53:22.378Z,19.2
2018-01-08T01:54:23.719Z,19.1
2018-01-08T01:55:25.616Z,19.2
2018-01-08T01:56:27.511Z,19.2
2018-01-08T01:57:29.129Z,19.1
2018-01-08T01:58:30.466Z,19.2
2018-01-08T01:59:31.784Z,19.2
2018-01-08T02:00:33.680Z,19.1
2018-01-08T02:01:35.301Z,19.2
2018-01-08T02:02:36.898Z,19.2
2018-01-08T02:03:38.791Z,19.2
2018-01-08T02:04:40.409Z,19.2
2018-01-08T02:05:42.025Z,19.2
2018-01-08T02:06:43.644Z,19.2
2018-01-08T02:07:45.268Z,19.2
2018-01-08T02:08:47.165Z,19.2
2018-01-08T02:09:48.484Z,19.2
2018-01-08T02:10:50.103Z,19.2
2018-01-08T02:11:51.998Z,19.2
2018-01-08T02:12:53.891Z,19.2
2018-01-08T02:13:55.786Z,19.2
2018-01-08T02:14:57.383Z,19.2
2018-01-08T02:15:58.999Z,19.2
2018-01-08T02:17:00.893Z,19.3
2018-01-08T02:18:02.232Z,19.2
2018-01-08T02:19:03.848Z,19.2
2018-01-08T02:20:05.758Z,19.2
2018-01-08T02:21:07.652Z,19.2
2018-01-08T02:22:09.250Z,19.2
2018-01-08T02:23:11.146Z,19.2
2018-01-08T02:24:12.762Z,19.2
2018-01-08T02:25:14.660Z,19.2
2018-01-08T02:26:16.278Z,19.2
2018-01-08T02:27:17.876Z,19.2
2018-01-08T02:28:19.771Z,19.2
2018-01-08T02:29:21.666Z,19.2
2018-01-08T02:30:23.265Z,19.2
2018-01-08T02:31:25.161Z,19.2
2018-01-08T02:32:27.057Z,19.2
2018-01-08T02:33:28.655Z,19.2
2018-01-08T02:34:30.548Z,19.2
2018-01-08T02:35:32.444Z,19.2
2018-01-08T02:36:34.062Z,19.2
2018-01-08T02:37:35.405Z,19.2
2018-01-08T02:38:36.447Z,19.2
2018-01-08T02:39:38.047Z,19.2
2018-01-08T02:40:39.662Z,19.2
2018-01-08T02:41:41.005Z,19.2
2018-01-08T02:42:42.341Z,19.3
2018-01-08T02:43:43.960Z,19.2
2018-01-08T02:44:45.579Z,19.2
2018-01-08T02:45:47.199Z,19.2
2018-01-08T02:46:48.539Z,19.3
2018-01-08T02:47:49.878Z,19.2
2018-01-08T02:48:51.197Z,19.2
2018-01-08T02:49:52.816Z,19.2
2018-01-08T02:50:54.433Z,19.2
2018-01-08T02:51:56.109Z,19.1
2018-01-08T02:52:57.730Z,19.2
2018-01-08T02:53:59.066Z,19.1
2018-01-08T02:55:00.973Z,19.2
2018-01-08T02:56:02.869Z,19.2
2018-01-08T02:57:04.764Z,19.1
2018-01-08T02:58:06.381Z,19.2
2018-01-08T02:59:07.700Z,19.1
2018-01-08T03:00:09.296Z,19.2
2018-01-08T03:01:11.195Z,19.1
2018-01-08T03:02:12.509Z,19.2
2018-01-08T03:03:14.128Z,19.2
2018-01-08T03:04:16.024Z,19.1
2018-01-08T03:05:17.934Z,19.2
2018-01-08T03:06:19.825Z,19.2
2018-01-08T03:07:21.719Z,19.2
2018-01-08T03:08:23.356Z,19.2
2018-01-08T03:09:24.968Z,19.2
2018-01-08T03:10:26.862Z,19.1
2018-01-08T03:11:28.758Z,19.2
2018-01-08T03:12:30.077Z,19.2
2018-01-08T03:13:31.694Z,19.2
2018-01-08T03:14:33.292Z,19.2
2018-01-08T03:15:34.911Z,19.2
2018-01-08T03:16:36.526Z,19.2
2018-01-08T03:17:38.146Z,19.2
2018-01-08T03:18:39.499Z,19.2
2018-01-08T03:19:41.393Z,19.2
2018-01-08T03:20:43.290Z,19.2
2018-01-08T03:21:44.908Z,19.2
2018-01-08T03:22:46.503Z,19.1
2018-01-08T03:23:48.402Z,19.1
2018-01-08T03:24:50.295Z,19.2
2018-01-08T03:25:51.632Z,19.2
2018-01-08T03:26:53.529Z,19.1
2018-01-08T03:27:54.851Z,19.1
2018-01-08T03:28:56.505Z,19.2
2018-01-08T03:29:58.402Z,19.2
2018-01-08T03:31:00.298Z,19.1
2018-01-08T03:32:02.194Z,19.1
2018-01-08T03:33:03.807Z,19.1
2018-01-08T03:34:05.703Z,19.1
2018-01-08T03:35:07.324Z,19.1
2018-01-08T03:36:08.938Z,19.1
2018-01-08T03:37:10.853Z,19.1
2018-01-08T03:38:12.738Z,19.1
2018-01-08T03:39:14.056Z,19.1
2018-01-08T03:40:15.955Z,19.1
2018-01-08T03:41:17.563Z,19.2
2018-01-08T03:42:19.497Z,19.1
2018-01-08T03:43:21.117Z,19.1
2018-01-08T03:44:22.460Z,19.1
2018-01-08T03:45:24.356Z,19.1
2018-01-08T03:46:25.974Z,19.1
2018-01-08T03:47:27.869Z,19.1
2018-01-08T03:48:29.485Z,19.1
2018-01-08T03:49:31.106Z,19.1
2018-01-08T03:50:32.701Z,19.1
2018-01-08T03:51:34.593Z,19.1
2018-01-08T03:52:36.209Z,19.1
2018-01-08T03:53:38.104Z,19.1
2018-01-08T03:54:40.004Z,19.1
2018-01-08T03:55:41.342Z,19.1
2018-01-08T03:56:43.238Z,19.1
2018-01-08T03:57:44.860Z,19.1
2018-01-08T03:58:46.180Z,19.1
2018-01-08T03:59:48.076Z,19.2
2018-01-08T04:00:49.969Z,19.1
2018-01-08T04:01:51.586Z,19.1
2018-01-08T04:02:52.905Z,19.1
2018-01-08T04:03:54.524Z,19.1
2018-01-08T04:04:56.417Z,19.1
2018-01-08T04:05:58.314Z,19.1
2018-01-08T04:07:00.206Z,19.1
2018-01-08T04:08:02.101Z,19.1
2018-01-08T04:09:03.716Z,19.1
2018-01-08T04:10:05.608Z,19.1
2018-01-08T04:11:07.502Z,19.1
2018-01-08T04:12:09.396Z,19.1
2018-01-08T04:13:11.001Z,19.1
2018-01-08T04:14:12.343Z,19.1
2018-01-08T04:15:13.940Z,19.1
2018-01-08T04:16:15.538Z,19.1
2018-01-08T04:17:17.155Z,19.1
2018-01-08T04:18:19.053Z,19.1
2018-01-08T04:19:20.374Z,19.2
2018-01-08T04:20:21.990Z,19.2
2018-01-08T04:21:23.883Z,19.2
2018-01-08T04:22:25.518Z,19.2
2018-01-08T04:23:27.414Z,19.2
2018-01-08T04:24:29.029Z,19.2
2018-01-08T04:25:30.964Z,19.2
2018-01-08T04:26:32.579Z,19.2
2018-01-08T04:27:33.935Z,19.2
2018-01-08T04:28:35.551Z,19.2
2018-01-08T04:29:37.447Z,19.3
2018-01-08T04:30:39.341Z,19.4
2018-01-08T04:31:40.384Z,19.3
2018-01-08T04:32:42.008Z,19.3
2018-01-08T04:33:43.623Z,19.3
2018-01-08T04:34:45.518Z,19.3
2018-01-08T04:35:47.137Z,19.3
2018-01-08T04:36:48.754Z,19.4
2018-01-08T04:37:50.371Z,19.4
2018-01-08T04:38:52.264Z,19.3
2018-01-08T04:39:53.584Z,19.3
2018-01-08T04:40:55.478Z,19.3
2018-01-08T04:41:57.372Z,19.5
2018-01-08T04:42:59.267Z,19.3
2018-01-08T04:44:01.163Z,19.4
2018-01-08T04:45:03.064Z,19.4
2018-01-08T04:46:04.401Z,19.4
2018-01-08T04:47:06.020Z,19.4
2018-01-08T04:48:07.358Z,19.5
2018-01-08T04:49:09.252Z,19.4
2018-01-08T04:50:11.146Z,19.4
2018-01-08T04:51:12.465Z,19.4
2018-01-08T04:52:14.094Z,19.4
2018-01-08T04:53:15.415Z,19.4
2018-01-08T04:54:17.028Z,19.4
2018-01-08T04:55:18.919Z,19.4
2018-01-08T04:56:20.551Z,19.3
2018-01-08T04:57:21.871Z,19.4
2018-01-08T04:58:23.765Z,19.5
2018-01-08T04:59:25.658Z,19.4
2018-01-08T05:00:26.724Z,19.4
2018-01-08T05:01:28.620Z,19.4
2018-01-08T05:02:30.514Z,19.4
2018-01-08T05:03:31.856Z,19.5
2018-01-08T05:04:33.470Z,19.4
2018-01-08T05:05:34.793Z,19.5
2018-01-08T05:06:36.406Z,19.5
2018-01-08T05:07:37.170Z,19.5
2018-01-08T05:08:39.068Z,19.6
2018-01-08T05:09:40.686Z,19.5
2018-01-08T05:10:42.303Z,19.5
2018-01-08T05:11:43.922Z,19.5
2018-01-08T05:12:45.831Z,19.5
2018-01-08T05:13:47.726Z,19.5
2018-01-08T05:14:49.621Z,19.5
2018-01-08T05:15:51.525Z,19.5
2018-01-08T05:16:53.135Z,19.5
2018-01-08T05:17:55.031Z,19.5
2018-01-08T05:18:56.626Z,19.5
2018-01-08T05:19:58.253Z,19.5
2018-01-08T05:20:59.873Z,19.5
2018-01-08T05:22:01.195Z,19.5
2018-01-08T05:23:02.814Z,19.5
2018-01-08T05:24:04.431Z,19.5
2018-01-08T05:25:05.752Z,19.5
2018-01-08T05:26:07.097Z,19.5
2018-01-08T05:27:09.046Z,19.5
2018-01-08T05:28:10.664Z,19.5
2018-01-08T05:29:12.282Z,19.5
2018-01-08T05:30:13.899Z,19.5
2018-01-08T05:31:15.520Z,19.5
2018-01-08T05:32:17.414Z,19.5
2018-01-08T05:33:18.457Z,19.6
2018-01-08T05:34:20.357Z,19.5
2018-01-08T05:35:22.255Z,19.5
2018-01-08T05:36:23.850Z,19.5
2018-01-08T05:37:25.748Z,19.5
2018-01-08T05:38:27.647Z,19.5
2018-01-08T05:39:28.692Z,19.5
2018-01-08T05:40:30.313Z,19.6
2018-01-08T05:41:32.211Z,19.5
2018-01-08T05:42:33.828Z,19.5
2018-01-08T05:43:35.167Z,19.5
2018-01-08T05:44:37.065Z,19.5
2018-01-08T05:45:38.679Z,19.5
2018-01-08T05:46:40.575Z,19.5
2018-01-08T05:47:42.206Z,19.5
2018-01-08T05:48:43.823Z,19.5
2018-01-08T05:49:45.440Z,19.5
2018-01-08T05:50:47.057Z,19.5
2018-01-08T05:51:48.656Z,19.5
2018-01-08T05:52:50.548Z,19.5
2018-01-08T05:53:52.185Z,19.5
2018-01-08T05:54:54.094Z,19.5
2018-01-08T05:55:55.700Z,19.6
2018-01-08T05:56:57.596Z,19.6
2018-01-08T05:57:59.494Z,19.5
2018-01-08T05:59:01.113Z,19.5
2018-01-08T06:00:02.432Z,19.5
2018-01-08T06:01:04.056Z,19.5
2018-01-08T06:02:05.949Z,19.5
2018-01-08T06:03:07.846Z,19.5
2018-01-08T06:04:09.185Z,19.5
2018-01-08T06:05:11.083Z,19.5
2018-01-08T06:06:12.416Z,19.5
2018-01-08T06:07:14.312Z,19.5
2018-01-08T06:08:15.648Z,19.5
2018-01-08T06:09:17.310Z,19.6
2018-01-08T06:10:18.928Z,19.5
2018-01-08T06:11:20.526Z,19.5
2018-01-08T06:12:21.566Z,19.5
2018-01-08T06:13:22.887Z,19.5
2018-01-08T06:14:24.507Z,19.5
2018-01-08T06:15:26.124Z,19.5
2018-01-08T06:16:27.720Z,19.5
2018-01-08T06:17:29.618Z,19.5
2018-01-08T06:18:31.513Z,19.5
2018-01-08T06:19:32.833Z,19.5
2018-01-08T06:20:34.724Z,19.5
2018-01-08T06:21:36.344Z,19.5
2018-01-08T06:22:37.684Z,19.5
2018-01-08T06:23:39.302Z,19.5
2018-01-08T06:24:41.195Z,19.5
2018-01-08T06:25:42.546Z,19.5
2018-01-08T06:26:44.440Z,19.5
2018-01-08T06:27:45.775Z,19.5
2018-01-08T06:28:47.668Z,19.5
2018-01-08T06:29:49.569Z,19.5
2018-01-08T06:30:51.186Z,19.5
2018-01-08T06:31:53.090Z,19.5
2018-01-08T06:32:54.430Z,19.5
2018-01-08T06:33:56.046Z,19.5
2018-01-08T06:34:57.665Z,19.5
2018-01-08T06:35:59.581Z,19.5
2018-01-08T06:37:00.911Z,19.5
2018-01-08T06:38:02.528Z,19.5
2018-01-08T06:39:04.425Z,19.5
2018-01-08T06:40:05.768Z,19.5
2018-01-08T06:41:07.108Z,19.5
2018-01-08T06:42:08.724Z,19.5
2018-01-08T06:43:10.622Z,19.5
2018-01-08T06:44:12.518Z,19.5
2018-01-08T06:45:13.566Z,19.5
2018-01-08T06:46:15.460Z,19.5
2018-01-08T06:47:17.356Z,19.5
2018-01-08T06:48:18.974Z,19.5
2018-01-08T06:49:20.622Z,19.5
2018-01-08T06:50:22.520Z,19.5
2018-01-08T06:51:24.138Z,19.5
2018-01-08T06:52:25.732Z,19.4
2018-01-08T06:53:27.063Z,19.5
2018-01-08T06:54:28.684Z,19.5
2018-01-08T06:55:30.574Z,19.4
2018-01-08T06:56:32.198Z,19.5
2018-01-08T06:57:33.240Z,19.5
2018-01-08T06:58:35.138Z,19.5
2018-01-08T06:59:36.755Z,19.5
2018-01-08T07:00:38.374Z,19.4
2018-01-08T07:01:40.268Z,19.5
2018-01-08T07:02:42.163Z,19.3
2018-01-08T07:03:43.758Z,19.4
2018-01-08T07:04:45.654Z,19.5
2018-01-08T07:05:47.272Z,19.4
2018-01-08T07:06:48.898Z,19.5
2018-01-08T07:07:50.232Z,19.4
2018-01-08T07:08:52.203Z,19.4
2018-01-08T07:09:53.819Z,19.4
2018-01-08T07:10:55.127Z,19.4
2018-01-08T07:11:56.748Z,19.4
2018-01-08T07:12:58.372Z,19.4
2018-01-08T07:13:59.987Z,19.4
2018-01-08T07:15:01.883Z,19.4
2018-01-08T07:16:03.777Z,19.5
2018-01-08T07:17:05.672Z,19.5
2018-01-08T07:18:07.289Z,19.5
2018-01-08T07:19:08.912Z,19.5
2018-01-08T07:20:10.508Z,19.5
2018-01-08T07:21:12.158Z,19.5
2018-01-08T07:22:13.803Z,19.5
2018-01-08T07:23:15.426Z,19.5
2018-01-08T07:24:16.766Z,19.6
2018-01-08T07:25:18.083Z,19.5
2018-01-08T07:26:19.978Z,19.5
2018-01-08T07:27:21.297Z,19.5
2018-01-08T07:28:22.640Z,19.5
2018-01-08T07:29:23.982Z,19.5
2018-01-08T07:30:25.601Z,19.5
2018-01-08T07:31:27.497Z,19.5
2018-01-08T07:32:28.816Z,19.5
2018-01-08T07:33:30.712Z,19.5
2018-01-08T07:34:32.334Z,19.6
2018-01-08T07:35:34.035Z,19.5
2018-01-08T07:36:35.655Z,19.6
2018-01-08T07:37:37.274Z,19.5
2018-01-08T07:38:38.896Z,19.5
2018-01-08T07:39:39.940Z,19.6
2018-01-08T07:40:41.835Z,19.5
2018-01-08T07:41:43.174Z,19.5
2018-01-08T07:42:45.070Z,19.5
2018-01-08T07:43:46.689Z,19.5
2018-01-08T07:44:48.308Z,19.5
2018-01-08T07:45:49.070Z,19.6
2018-01-08T07:46:50.968Z,19.5
2018-01-08T07:47:52.865Z,19.5
2018-01-08T07:48:54.465Z,19.6
2018-01-08T07:49:56.364Z,19.6
2018-01-08T07:50:57.984Z,19.5
2018-01-08T07:51:59.606Z,19.5
2018-01-08T07:53:01.500Z,19.5
2018-01-08T07:54:03.411Z,19.5
2018-01-08T07:55:05.029Z,19.5
2018-01-08T07:56:06.652Z,19.5
2018-01-08T07:57:07.697Z,19.5
2018-01-08T07:58:09.018Z,19.5
2018-01-08T07:59:10.337Z,19.6
2018-01-08T08:00:12.233Z,19.5
2018-01-08T08:01:13.853Z,19.5
2018-01-08T08:02:15.193Z,19.5
2018-01-08T08:03:16.537Z,19.5
2018-01-08T08:04:18.158Z,19.5
2018-01-08T08:05:19.496Z,19.5
2018-01-08T08:06:21.117Z,19.5
2018-01-08T08:07:22.735Z,19.5
2018-01-08T08:08:24.056Z,19.5
2018-01-08T08:09:25.675Z,19.6
2018-01-08T08:10:27.297Z,19.5
2018-01-08T08:11:28.637Z,19.5
2018-01-08T08:12:30.533Z,19.5
2018-01-08T08:13:32.127Z,19.6
2018-01-08T08:14:33.753Z,19.6
2018-01-08T08:15:35.646Z,19.5
2018-01-08T08:16:37.260Z,19.6
2018-01-08T08:17:38.856Z,19.6
2018-01-08T08:18:39.919Z,19.6
2018-01-08T08:19:41.234Z,19.5
2018-01-08T08:20:42.830Z,19.5
2018-01-08T08:21:44.427Z,19.5
2018-01-08T08:22:46.059Z,19.5
2018-01-08T08:23:47.400Z,19.6
2018-01-08T08:24:49.295Z,19.5
2018-01-08T08:25:51.191Z,19.5
2018-01-08T08:26:52.257Z,19.6
2018-01-08T08:27:53.853Z,19.6
2018-01-08T08:28:54.922Z,19.6
2018-01-08T08:29:56.817Z,19.5
2018-01-08T08:30:58.436Z,19.5
2018-01-08T08:31:59.780Z,19.5
2018-01-08T08:33:01.402Z,19.5
2018-01-08T08:34:03.301Z,19.5
2018-01-08T08:35:04.922Z,19.5
2018-01-08T08:36:06.819Z,19.5
2018-01-08T08:37:08.434Z,19.5
2018-01-08T08:38:10.330Z,19.6
2018-01-08T08:39:11.928Z,19.5
2018-01-08T08:40:13.825Z,19.6
2018-01-08T08:41:15.446Z,19.6
2018-01-08T08:42:17.123Z,19.5
2018-01-08T08:43:18.737Z,19.6
2018-01-08T08:44:20.357Z,19.5
2018-01-08T08:45:21.972Z,19.5
2018-01-08T08:46:23.294Z,19.5
2018-01-08T08:47:24.686Z,19.5
2018-01-08T08:48:26.306Z,19.5
2018-01-08T08:49:27.924Z,19.6
2018-01-08T08:50:29.027Z,19.5
2018-01-08T08:51:30.349Z,19.6
2018-01-08T08:52:31.942Z,19.5
2018-01-08T08:53:33.285Z,19.7
2018-01-08T08:54:34.914Z,19.6
2018-01-08T08:55:35.970Z,19.6
2018-01-08T08:56:37.033Z,19.6
2018-01-08T08:57:38.652Z,19.6
2018-01-08T08:58:40.586Z,19.5
2018-01-08T08:59:42.181Z,19.6
2018-01-08T09:00:43.799Z,19.5
2018-01-08T09:01:45.429Z,19.5
2018-01-08T09:02:47.333Z,19.5
2018-01-08T09:03:48.953Z,19.5
2018-01-08T09:04:50.853Z,19.5
2018-01-08T09:05:52.758Z,19.5
2018-01-08T09:06:54.369Z,19.5
2018-01-08T09:07:56.003Z,19.5
2018-01-08T09:08:57.599Z,19.5
2018-01-08T09:09:59.493Z,19.5
2018-01-08T09:11:01.113Z,19.6
2018-01-08T09:12:03.006Z,19.6
2018-01-08T09:13:04.902Z,19.6
2018-01-08T09:14:06.520Z,19.6
2018-01-08T09:15:08.138Z,19.6
2018-01-08T09:16:09.757Z,19.6
2018-01-08T09:17:11.389Z,19.6
2018-01-08T09:18:13.275Z,19.6
2018-01-08T09:19:14.887Z,19.6
2018-01-08T09:20:16.784Z,19.7
2018-01-08T09:21:18.683Z,19.6
2018-01-08T09:22:20.296Z,19.5
2018-01-08T09:23:21.707Z,19.6
2018-01-08T09:24:23.605Z,19.6
2018-01-08T09:25:24.644Z,19.6
2018-01-08T09:26:26.241Z,19.6
2018-01-08T09:27:28.141Z,19.6
2018-01-08T09:28:29.481Z,19.6
2018-01-08T09:29:30.807Z,19.6
2018-01-08T09:30:32.695Z,19.6
2018-01-08T09:31:34.314Z,19.7
2018-01-08T09:32:36.211Z,19.5
2018-01-08T09:33:37.532Z,19.6
2018-01-08T09:34:39.152Z,19.6
2018-01-08T09:35:40.750Z,19.6
2018-01-08T09:36:42.372Z,19.6
2018-01-08T09:37:43.967Z,19.5
2018-01-08T09:38:45.582Z,19.6
2018-01-08T09:39:46.901Z,19.6
2018-01-08T09:40:48.802Z,19.6
2018-01-08T09:41:50.695Z,19.6
2018-01-08T09:42:52.595Z,19.6
2018-01-08T09:43:53.914Z,19.5
2018-01-08T09:44:55.811Z,19.6
2018-01-08T09:45:57.137Z,19.5
2018-01-08T09:46:58.752Z,19.6
2018-01-08T09:48:00.095Z,19.6
2018-01-08T09:49:01.992Z,19.6
2018-01-08T09:50:03.594Z,19.6
2018-01-08T09:51:05.199Z,19.6
2018-01-08T09:52:07.089Z,19.6
2018-01-08T09:53:08.431Z,19.6
2018-01-08T09:54:10.052Z,19.6
2018-01-08T09:55:11.948Z,19.6
2018-01-08T09:56:13.288Z,19.6
2018-01-08T09:57:14.891Z,19.6
2018-01-08T09:58:16.786Z,19.6
2018-01-08T09:59:18.412Z,19.7
2018-01-08T10:00:20.026Z,19.5
2018-01-08T10:01:21.922Z,19.6
2018-01-08T10:02:23.540Z,19.6
2018-01-08T10:03:25.154Z,19.6
2018-01-08T10:04:26.499Z,19.6
2018-01-08T10:05:28.394Z,19.6
2018-01-08T10:06:30.014Z,19.6
2018-01-08T10:07:31.634Z,19.6
2018-01-08T10:08:33.529Z,19.6
2018-01-08T10:09:35.131Z,19.6
2018-01-08T10:10:36.750Z,19.7
2018-01-08T10:11:38.370Z,19.6
2018-01-08T10:12:40.268Z,19.6
2018-01-08T10:13:41.872Z,19.6
2018-01-08T10:14:43.485Z,19.7
2018-01-08T10:15:45.086Z,19.6
2018-01-08T10:16:46.408Z,19.7
2018-01-08T10:17:48.033Z,19.7
2018-01-08T10:18:49.630Z,19.7
2018-01-08T10:19:51.302Z,19.7
2018-01-08T10:20:53.189Z,19.7
2018-01-08T10:21:54.816Z,19.7
2018-01-08T10:22:56.705Z,19.7
2018-01-08T10:23:58.332Z,19.7
2018-01-08T10:25:00.227Z,19.7
2018-01-08T10:26:01.848Z,19.7
2018-01-08T10:27:03.448Z,19.7
2018-01-08T10:28:04.765Z,19.7
2018-01-08T10:29:06.089Z,19.7
2018-01-08T10:30:07.723Z,19.7
2018-01-08T10:31:09.617Z,19.7
2018-01-08T10:32:11.236Z,19.7
2018-01-08T10:33:12.556Z,19.7
2018-01-08T10:34:13.896Z,19.7
2018-01-08T10:35:15.795Z,19.7
2018-01-08T10:36:17.417Z,19.8
2018-01-08T10:37:19.032Z,19.7
2018-01-08T10:38:20.655Z,19.7
2018-01-08T10:39:21.694Z,19.7
2018-01-08T10:40:23.327Z,19.7
2018-01-08T10:41:25.315Z,19.7
2018-01-08T10:42:26.931Z,19.7
2018-01-08T10:43:28.277Z,19.7
2018-01-08T10:44:29.604Z,19.7
2018-01-08T10:45:31.500Z,19.7
2018-01-08T10:46:32.845Z,19.7
2018-01-08T10:47:34.465Z,19.7
2018-01-08T10:48:36.364Z,19.8
2018-01-08T10:49:38.263Z,19.7
2018-01-08T10:50:39.585Z,19.8
2018-01-08T10:51:41.486Z,19.7
2018-01-08T10:52:43.109Z,19.7
2018-01-08T10:53:44.702Z,19.7
2018-01-08T10:54:46.301Z,19.6
2018-01-08T10:55:47.620Z,19.7
2018-01-08T10:56:49.247Z,19.7
2018-01-08T10:57:50.591Z,19.7
2018-01-08T10:58:52.205Z,19.7
2018-01-08T10:59:54.106Z,19.7
2018-01-08T11:00:56.002Z,19.7
2018-01-08T11:01:57.898Z,19.7
2018-01-08T11:02:59.498Z,19.7
2018-01-08T11:04:01.444Z,19.7
2018-01-08T11:05:03.340Z,19.7
2018-01-08T11:06:04.389Z,19.8
2018-01-08T11:07:06.008Z,19.7
2018-01-08T11:08:07.904Z,19.7
2018-01-08T11:09:09.510Z,19.7
2018-01-08T11:10:10.848Z,19.7
2018-01-08T11:11:12.195Z,19.7
2018-01-08T11:12:13.515Z,19.8
2018-01-08T11:13:15.112Z,19.7
2018-01-08T11:14:17.013Z,19.7
2018-01-08T11:16:18.071Z,21.3
2018-01-08T11:17:19.969Z,20.6
2018-01-08T11:18:21.291Z,20.3
2018-01-08T11:19:22.332Z,20.1
2018-01-08T11:20:24.224Z,19.9
2018-01-08T11:21:25.842Z,20
2018-01-08T11:22:26.891Z,19.9
2018-01-08T11:23:27.935Z,19.9
2018-01-08T11:24:29.828Z,19.9
2018-01-08T11:25:31.146Z,19.8
2018-01-08T11:26:32.462Z,19.9
2018-01-08T11:27:33.785Z,19.9
2018-01-08T11:28:35.683Z,19.9
2018-01-08T11:29:37.006Z,19.8
2018-01-08T11:30:38.349Z,19.8
2018-01-08T11:31:39.967Z,19.8
2018-01-08T11:32:41.286Z,19.8
2018-01-08T11:33:42.902Z,19.8
2018-01-08T11:34:44.499Z,19.8
2018-01-08T11:35:46.103Z,19.8
2018-01-08T11:36:47.449Z,19.8
2018-01-08T11:37:48.812Z,19.8
2018-01-08T11:38:50.710Z,19.8
2018-01-08T11:39:52.309Z,19.8
2018-01-08T11:40:53.923Z,19.8
2018-01-08T11:41:55.261Z,19.8
2018-01-08T11:42:56.581Z,19.7
2018-01-08T11:43:58.202Z,19.9
2018-01-08T11:44:59.897Z,19.8
2018-01-08T11:46:01.523Z,19.8
2018-01-08T11:47:03.417Z,19.8
2018-01-08T11:48:05.032Z,19.8
2018-01-08T11:49:06.376Z,19.7
2018-01-08T11:50:07.698Z,19.7
2018-01-08T11:51:09.592Z,19.8
2018-01-08T11:52:11.488Z,19.8
2018-01-08T11:53:13.086Z,19.8
2018-01-08T11:54:14.706Z,19.8
2018-01-08T11:55:16.325Z,19.9
2018-01-08T11:56:17.648Z,19.7
2018-01-08T11:57:18.991Z,19.8
2018-01-08T11:58:20.310Z,19.8
2018-01-08T11:59:21.634Z,19.8
2018-01-08T12:00:23.535Z,19.8
2018-01-08T12:01:25.156Z,19.8
2018-01-08T12:02:26.494Z,19.8
2018-01-08T12:03:28.392Z,19.8
2018-01-08T12:04:30.295Z,19.9
2018-01-08T12:05:31.887Z,19.9
2018-01-08T12:06:33.781Z,19.8
2018-01-08T12:07:35.401Z,19.8
2018-01-08T12:08:36.745Z,19.8
2018-01-08T12:09:38.649Z,19.8
2018-01-08T12:10:40.540Z,19.9
2018-01-08T12:11:42.160Z,19.8
2018-01-08T12:12:44.093Z,19.8
2018-01-08T12:13:45.413Z,19.8
2018-01-08T12:14:47.305Z,19.8
2018-01-08T12:15:49.249Z,19.8
2018-01-08T12:16:50.909Z,19.9
2018-01-08T12:17:52.804Z,19.8
2018-01-08T12:18:54.704Z,19.8
2018-01-08T12:19:56.304Z,19.8
2018-01-08T12:20:57.923Z,19.9
2018-01-08T12:21:59.244Z,19.7
2018-01-08T12:23:00.866Z,19.8
2018-01-08T12:24:02.483Z,19.7
2018-01-08T12:25:03.807Z,19.8
2018-01-08T12:26:05.798Z,19.8
2018-01-08T12:27:07.141Z,19.8
2018-01-08T12:28:08.762Z,19.9
2018-01-08T12:29:10.658Z,19.9
2018-01-08T12:30:12.275Z,19.8
2018-01-08T12:31:13.892Z,19.8
2018-01-08T12:32:15.489Z,19.7
2018-01-08T12:33:17.385Z,19.8
2018-01-08T12:34:19.006Z,19.9
2018-01-08T12:35:20.904Z,19.8
2018-01-08T12:36:22.223Z,19.8
2018-01-08T12:37:23.544Z,19.9
2018-01-08T12:38:24.585Z,19.9
2018-01-08T12:39:26.186Z,19.8
2018-01-08T12:40:28.082Z,19.9
2018-01-08T12:41:29.978Z,19.8
2018-01-08T12:42:31.598Z,19.9
2018-01-08T12:43:33.212Z,19.8
2018-01-08T12:44:34.830Z,19.9
2018-01-08T12:45:36.150Z,19.9
2018-01-08T12:46:37.773Z,19.8
2018-01-08T12:47:39.664Z,19.9
2018-01-08T12:48:41.284Z,19.8
2018-01-08T12:49:43.187Z,19.8
2018-01-08T12:50:44.804Z,19.9
2018-01-08T12:51:46.123Z,19.8
2018-01-08T12:52:47.744Z,19.9
2018-01-08T12:53:49.640Z,19.8
2018-01-08T12:54:51.239Z,19.9
2018-01-08T12:55:52.581Z,19.9
2018-01-08T12:56:54.196Z,19.8
2018-01-08T12:57:55.521Z,19.9
2018-01-08T12:58:57.142Z,19.9
2018-01-08T12:59:58.464Z,19.8
2018-01-08T13:00:59.789Z,19.9
2018-01-08T13:02:01.125Z,19.8
2018-01-08T13:03:02.733Z,19.9
2018-01-08T13:04:04.351Z,19.9
2018-01-08T13:05:06.013Z,19.9
2018-01-08T13:06:07.355Z,19.9
2018-01-08T13:07:08.971Z,19.9
2018-01-08T13:08:10.867Z,19.9
2018-01-08T13:09:12.762Z,19.9
2018-01-08T13:10:14.104Z,19.9
2018-01-08T13:11:15.703Z,19.8
2018-01-08T13:12:17.302Z,19.9
2018-01-08T13:13:18.954Z,19.9
2018-01-08T13:14:20.848Z,19.9
2018-01-08T13:15:22.747Z,20
2018-01-08T13:16:24.366Z,19.9
2018-01-08T13:17:26.264Z,19.8
2018-01-08T13:18:27.589Z,19.8
2018-01-08T13:19:29.212Z,19.9
2018-01-08T13:20:31.106Z,19.9
2018-01-08T13:21:33.002Z,20
2018-01-08T13:22:34.623Z,20
2018-01-08T13:23:35.941Z,19.9
2018-01-08T13:24:37.003Z,19.9
2018-01-08T13:25:38.343Z,20
2018-01-08T13:26:39.676Z,20
2018-01-08T13:27:41.295Z,19.9
2018-01-08T13:28:43.191Z,20
2018-01-08T13:29:45.090Z,20
2018-01-08T13:30:46.986Z,19.9
2018-01-08T13:31:48.885Z,20
2018-01-08T13:32:50.539Z,20
2018-01-08T13:33:52.435Z,19.9
2018-01-08T13:34:53.759Z,19.9
2018-01-08T13:35:55.377Z,20
2018-01-08T13:36:56.718Z,20
2018-01-08T13:37:58.339Z,19.8
2018-01-08T13:39:00.234Z,20
2018-01-08T13:40:02.131Z,19.9
2018-01-08T13:41:03.749Z,20
2018-01-08T13:42:05.346Z,20
2018-01-08T13:43:07.243Z,19.9
2018-01-08T13:44:08.860Z,19.9